Hebron, New York
Current Conditions -  °F | °C
As of 10:11 PM on Wednesday 26 Nov 2014 (Local Time) from KGFL Reporting Station
Light Snow Light Snow  
Wind Chill: 22°   Ceiling: 2000
Heat Index: 31°   Visibility: 2mi
Dew Point: 27°   Wind: 12mph
Humidity: 85%   Direction: 10°N
Pressure: 29.92"   Gusts: NA
Location:  43.3389°N, 73.3194°W
Report Text: KGFL 270311Z AUTO 01010KT 2SM -SN BR OVC020 M01/M03 A2992 RMK AO2 P0000 T10061028
Loading
Personal Weather Stations






























Interactive Weather Map New forecast layout! Learn more

10-Day Weather Forecast

Advertisements
Track Severe Weather on mobile